Colt, AR (72326)

3:58 AM CDT on June 02, 2015 (GMT -0500)
marianna,arrkansas | | Change Station
CLOSE
Current Station
Personal Weather Station
Location: Marianna, AR
Elevation: 230 ft
Nearby Weather Stations

Elev 230 ft 34.77 °N, 90.77 °W | Updated 5 minutes ago

Mostly Cloudy
Mostly Cloudy
61.5 °F
Feels Like 61.5 °F
N
0.0
Wind Variable Wind from NNW

Today
High -- | Low -- °F
--% Chance of Precip.
Yesterday
High -- | Low -- °F
Precip. -- in
5:49 AM 8:12 PM
Full, 100% visible
Pressure 30.06 in
Visibility 7.0 miles
Clouds Scattered Clouds 1400 ft
Mostly Cloudy 5500 ft
Dew Point 60 °F
Humidity 94%
Rainfall 0.00 in
Snow Depth Not available.
UV 0 out of 12
Pollen 5.40 out of 12
Air Quality Not available.
Flu Activity No Activity
SPECI KAWM 020850Z AUTO 35003KT 7SM SCT014 BKN055 16/16 A3006 RMK AO2

More Conditions Fewer Conditions

Pressure 30.06 in
Visibility 7.0 miles
Clouds Scattered Clouds 1400 ft
Mostly Cloudy 5500 ft
Dew Point 60 °F
Humidity 94%
Rainfall 0.00 in
Snow Depth Not available.
UV 0 out of 12
Pollen 5.40 out of 12
Air Quality Not available.
Flu Activity No Activity
SPECI KAWM 020850Z AUTO 35003KT 7SM SCT014 BKN055 16/16 A3006 RMK AO2

More Conditions Fewer Conditions

10-Day Weather Forecast

Almanac

Astronomy

Jun. 02, 2015 Rise Set
Actual Time
Civil Twilight
Nautical Twilight
Astronomical Twilight
Moon
Length of Visible Light
Length of Day
Tomorrow will be .
, % of the Moon is Illuminated

Today's Extremes

State Highs State Lows

Community

WunderPhotos

Upload Photos

1,825,900 photos uploaded!

WunderBlogs® & News

Nearby

Air Quality

  Air Quality AQ Index Pollutant
Not available.

Snow Depth

Station Depth Elevation

Earthquake Activity

City Distance Mag. Time & Date
Minimum magnitude displayed is 2.5.

Coastal Water Temperatures

Place Temperature

Stations

Nearby Weather Stations

Station Location Temp. Windchill Dew Point Humidity Wind Precip. Elev Updated Type